Time;durP1;ratioP1;P1;durP2;ratioP2;P2;SDS_P1;SDS_P2;PMS_P1;PMS_P2;Temp;Humidity;BMP_temperature;BMP_pressure;BME280_temperature;BME280_humidity;BME280_pressure;Samples;Min_cycle;Max_cycle;Signal;HPM_P1;HPM_P2
2021/10/17 00:01:05;;;;;;;6.93;2.97;;;10.00;99.90;;;;;;4995537;28;20582;-69
2021/10/17 00:03:33;;;;;;;9.13;3.37;;;10.00;99.90;;;;;;4997919;28;20240;-69
2021/10/17 00:06:02;;;;;;;10.43;3.10;;;10.00;99.90;;;;;;4993734;28;20240;-69
2021/10/17 00:08:30;;;;;;;9.10;3.30;;;10.00;99.90;;;;;;4986842;28;20271;-69
2021/10/17 00:10:58;;;;;;;6.87;3.33;;;10.00;99.90;;;;;;4994557;28;20238;-69
2021/10/17 00:13:26;;;;;;;9.90;3.50;;;10.00;99.90;;;;;;4995665;28;20584;-70
2021/10/17 00:15:54;;;;;;;6.73;2.87;;;10.00;99.90;;;;;;4988275;28;20238;-69
2021/10/17 00:18:24;;;;;;;5.87;2.57;;;10.00;99.90;;;;;;4997728;28;22534;-69
2021/10/17 00:20:53;;;;;;;7.90;3.07;;;10.00;99.90;;;;;;4996600;28;20229;-68
2021/10/17 00:23:22;;;;;;;8.40;3.20;;;10.00;99.90;;;;;;4987879;28;20597;-69
2021/10/17 00:25:50;;;;;;;9.13;3.57;;;10.00;99.90;;;;;;4974091;28;20602;-69
2021/10/17 00:28:18;;;;;;;11.00;3.07;;;10.00;99.90;;;;;;4994195;28;20716;-69
2021/10/17 00:30:52;;;;;;;9.43;3.10;;;10.00;99.90;;;;;;4973982;28;20662;-68
2021/10/17 00:33:24;;;;;;;8.00;2.80;;;10.00;99.90;;;;;;4972941;28;20238;-69
2021/10/17 00:35:52;;;;;;;9.63;2.70;;;9.90;99.90;;;;;;4996401;28;20492;-69
2021/10/17 00:38:20;;;;;;;6.60;3.10;;;9.90;99.90;;;;;;4975206;28;20585;-69
2021/10/17 00:40:50;;;;;;;8.27;3.10;;;9.90;99.90;;;;;;4986981;28;20521;-69
2021/10/17 00:43:18;;;;;;;9.10;3.07;;;9.90;99.90;;;;;;4984843;28;20329;-69
2021/10/17 00:45:46;;;;;;;12.80;3.30;;;9.90;99.90;;;;;;4988042;28;20593;-69
2021/10/17 00:48:14;;;;;;;7.57;2.80;;;9.90;99.90;;;;;;4972517;28;20235;-69
2021/10/17 00:50:45;;;;;;;9.17;3.10;;;9.90;99.90;;;;;;4986583;28;20802;-70
2021/10/17 00:53:13;;;;;;;7.87;3.37;;;9.80;99.90;;;;;;4976352;28;20234;-69
2021/10/17 00:55:41;;;;;;;7.07;3.00;;;9.80;99.90;;;;;;4989923;28;20246;-70
2021/10/17 00:58:21;;;;;;;7.77;3.20;;;9.70;99.90;;;;;;4976909;28;20251;-69
2021/10/17 01:00:50;;;;;;;7.10;3.00;;;9.70;99.90;;;;;;4992676;28;20241;-69
2021/10/17 01:03:19;;;;;;;10.50;3.80;;;9.60;99.90;;;;;;4992781;28;20249;-69
2021/10/17 01:05:49;;;;;;;8.97;3.50;;;9.60;99.90;;;;;;4975927;28;20597;-69
2021/10/17 01:08:17;;;;;;;8.33;3.50;;;9.60;99.90;;;;;;4993644;28;20307;-70
2021/10/17 01:10:47;;;;;;;7.90;3.20;;;9.60;99.90;;;;;;4984537;28;20242;-69
2021/10/17 01:13:16;;;;;;;9.93;3.80;;;9.60;99.90;;;;;;4977523;28;20238;-70
2021/10/17 01:15:45;;;;;;;11.40;4.20;;;9.60;99.90;;;;;;4984609;28;20601;-69
2021/10/17 01:18:13;;;;;;;6.70;3.60;;;9.50;99.90;;;;;;4971054;28;20721;-69
2021/10/17 01:20:45;;;;;;;9.00;3.27;;;9.50;99.90;;;;;;4993881;28;20242;-69
2021/10/17 01:23:15;;;;;;;10.67;3.80;;;9.50;99.90;;;;;;4976197;28;20261;-70
2021/10/17 01:25:43;;;;;;;12.07;3.67;;;9.50;99.90;;;;;;4980198;28;20645;-68
2021/10/17 01:28:12;;;;;;;7.43;3.60;;;9.50;99.90;;;;;;4992726;28;20243;-70
2021/10/17 01:30:40;;;;;;;8.57;4.17;;;9.50;99.90;;;;;;4975762;28;20605;-69
2021/10/17 01:33:08;;;;;;;10.43;3.70;;;9.50;99.90;;;;;;4979289;28;20815;-70
2021/10/17 01:35:37;;;;;;;8.67;3.67;;;9.50;99.90;;;;;;4977442;28;20654;-70
2021/10/17 01:38:07;;;;;;;11.43;3.80;;;9.50;99.90;;;;;;4978938;28;20234;-69
2021/10/17 01:40:36;;;;;;;11.17;3.80;;;9.50;99.90;;;;;;4980335;28;20234;-69
2021/10/17 01:43:05;;;;;;;7.97;3.83;;;9.50;99.90;;;;;;4990387;28;20316;-69
2021/10/17 01:45:53;;;;;;;9.20;3.90;;;9.50;99.90;;;;;;4971140;28;20280;-69
2021/10/17 01:48:21;;;;;;;12.17;4.27;;;9.50;99.90;;;;;;4970684;28;20794;-70
2021/10/17 01:50:50;;;;;;;8.40;3.73;;;9.50;99.90;;;;;;4964310;28;20234;-68
2021/10/17 01:53:20;;;;;;;10.63;4.10;;;9.50;99.90;;;;;;4977134;28;20263;-69
2021/10/17 01:55:48;;;;;;;9.90;4.43;;;9.50;99.90;;;;;;4977828;28;20233;-69
2021/10/17 01:58:18;;;;;;;9.67;4.40;;;9.50;99.90;;;;;;4979581;28;20245;-69
2021/10/17 02:00:46;;;;;;;8.23;4.27;;;9.50;99.90;;;;;;4979860;28;20318;-69
2021/10/17 02:03:15;;;;;;;8.77;4.33;;;9.50;99.90;;;;;;4975158;28;20244;-69
2021/10/17 02:05:45;;;;;;;9.13;4.20;;;9.50;99.90;;;;;;4978313;28;20284;-70
2021/10/17 02:08:16;;;;;;;10.10;4.40;;;9.60;99.90;;;;;;4994192;28;20393;-68
2021/10/17 02:10:47;;;;;;;14.00;4.50;;;9.60;99.90;;;;;;4977940;28;20294;-70
2021/10/17 02:13:15;;;;;;;11.27;4.17;;;9.60;99.90;;;;;;4996618;28;20241;-69
2021/10/17 02:15:43;;;;;;;12.67;5.33;;;9.60;99.90;;;;;;4971789;28;20234;-70
2021/10/17 02:18:12;;;;;;;8.17;3.70;;;9.70;99.90;;;;;;4973791;28;20241;-69
2021/10/17 02:20:45;;;;;;;8.80;4.37;;;9.70;99.90;;;;;;4975217;28;20233;-69
2021/10/17 02:23:16;;;;;;;9.67;4.17;;;9.70;99.90;;;;;;4978825;28;20337;-70
2021/10/17 02:25:44;;;;;;;9.07;4.00;;;9.70;99.90;;;;;;4981953;28;20266;-69
2021/10/17 02:28:13;;;;;;;7.13;4.33;;;9.70;99.90;;;;;;4970903;28;20242;-69
2021/10/17 02:30:50;;;;;;;8.27;4.30;;;9.70;99.90;;;;;;4976172;28;20245;-70
2021/10/17 02:33:25;;;;;;;10.83;4.07;;;9.70;99.90;;;;;;4994912;28;20237;-69
2021/10/17 02:35:53;;;;;;;9.43;4.80;;;9.80;99.90;;;;;;4976250;28;20230;-69
2021/10/17 02:38:22;;;;;;;9.10;4.50;;;9.80;99.90;;;;;;4983436;28;20332;-70
2021/10/17 02:40:50;;;;;;;11.23;4.23;;;9.80;99.90;;;;;;5001169;28;20233;-69
2021/10/17 02:43:21;;;;;;;13.40;4.97;;;9.80;99.90;;;;;;4980243;28;20241;-69
2021/10/17 02:45:53;;;;;;;12.80;4.60;;;9.80;99.90;;;;;;4999068;28;20230;-70
2021/10/17 02:48:21;;;;;;;8.40;4.00;;;9.80;99.90;;;;;;4981397;28;20241;-69
2021/10/17 02:50:52;;;;;;;9.57;4.10;;;9.80;99.90;;;;;;4974431;28;20475;-69
2021/10/17 02:53:20;;;;;;;7.77;4.13;;;9.80;99.90;;;;;;4989432;28;20237;-70
2021/10/17 02:55:49;;;;;;;7.60;4.40;;;9.90;99.90;;;;;;4991936;28;20242;-69
2021/10/17 02:58:18;;;;;;;11.03;4.50;;;9.80;99.90;;;;;;4973279;28;20234;-69
2021/10/17 03:00:56;;;;;;;8.77;4.00;;;9.80;99.90;;;;;;4980087;28;20783;-69
2021/10/17 03:03:24;;;;;;;11.03;4.57;;;9.90;99.90;;;;;;4989834;28;20551;-69
2021/10/17 03:05:53;;;;;;;8.83;4.33;;;9.90;99.90;;;;;;4977523;28;20237;-70
2021/10/17 03:08:21;;;;;;;8.87;4.07;;;9.90;99.90;;;;;;4992616;28;20237;-70
2021/10/17 03:10:50;;;;;;;8.47;3.90;;;9.90;99.90;;;;;;4974588;28;20253;-70
2021/10/17 03:13:19;;;;;;;10.03;4.70;;;9.90;99.90;;;;;;4980708;28;20241;-70
2021/10/17 03:15:47;;;;;;;7.90;3.87;;;9.90;99.90;;;;;;4974615;28;20249;-70
2021/10/17 03:18:21;;;;;;;11.53;4.03;;;9.90;99.90;;;;;;4970181;28;20230;-70
2021/10/17 03:20:49;;;;;;;9.13;4.83;;;9.80;99.90;;;;;;4976284;28;20229;-70
2021/10/17 03:23:18;;;;;;;13.23;5.30;;;9.90;99.90;;;;;;4980272;28;20901;-69
2021/10/17 03:25:47;;;;;;;10.13;4.63;;;9.80;99.90;;;;;;4989052;28;20272;-70
2021/10/17 03:28:16;;;;;;;11.77;4.70;;;9.80;99.90;;;;;;4980315;28;20230;-69
2021/10/17 03:30:45;;;;;;;11.10;4.50;;;9.80;99.90;;;;;;4967512;28;21324;-68
2021/10/17 03:33:14;;;;;;;11.53;4.40;;;9.90;99.90;;;;;;4976122;28;20925;-69
2021/10/17 03:35:44;;;;;;;10.80;4.53;;;9.90;99.90;;;;;;4979197;28;20230;-69
2021/10/17 03:38:12;;;;;;;7.50;4.07;;;9.90;99.90;;;;;;4983807;28;20321;-69
2021/10/17 03:40:40;;;;;;;10.30;5.30;;;9.90;99.90;;;;;;4995882;28;20325;-68
2021/10/17 03:43:10;;;;;;;9.63;4.60;;;9.90;99.90;;;;;;4973701;28;20234;-69
2021/10/17 03:45:47;;;;;;;9.07;4.20;;;9.90;99.90;;;;;;4979298;28;20240;-69
2021/10/17 03:48:15;;;;;;;10.53;4.50;;;9.90;99.90;;;;;;4991363;28;20234;-69
2021/10/17 03:50:46;;;;;;;11.17;4.60;;;9.90;99.90;;;;;;4977589;28;20241;-70
2021/10/17 03:53:15;;;;;;;12.77;4.60;;;10.00;99.90;;;;;;4975213;28;20258;-70
2021/10/17 03:55:43;;;;;;;9.57;4.80;;;10.00;99.90;;;;;;4994169;28;20706;-68
2021/10/17 03:58:11;;;;;;;11.03;4.37;;;9.90;99.90;;;;;;4992913;28;20245;-68
2021/10/17 04:00:39;;;;;;;13.10;5.60;;;9.90;99.90;;;;;;4994456;28;20304;-69
2021/10/17 04:03:08;;;;;;;10.20;4.53;;;10.00;99.90;;;;;;4994340;28;20248;-69
2021/10/17 04:05:37;;;;;;;11.27;4.50;;;9.90;99.90;;;;;;4993853;28;20472;-70
2021/10/17 04:08:08;;;;;;;7.83;4.63;;;9.90;99.90;;;;;;4978377;28;20237;-69
2021/10/17 04:10:37;;;;;;;13.83;5.67;;;10.00;99.90;;;;;;4994493;28;20350;-70
2021/10/17 04:13:06;;;;;;;11.10;5.03;;;10.00;99.90;;;;;;4971774;28;20242;-68
2021/10/17 04:15:35;;;;;;;16.40;5.40;;;10.00;99.90;;;;;;4989170;28;20245;-68
2021/10/17 04:18:07;;;;;;;8.77;4.50;;;10.00;99.90;;;;;;4996642;28;20283;-69
2021/10/17 04:20:36;;;;;;;8.10;4.43;;;10.00;99.90;;;;;;4995112;28;20238;-69
2021/10/17 04:23:06;;;;;;;10.63;4.50;;;10.00;99.90;;;;;;4987182;28;20317;-68
2021/10/17 04:25:36;;;;;;;8.90;4.90;;;10.00;99.90;;;;;;4985798;28;20260;-69
2021/10/17 04:28:07;;;;;;;13.97;4.40;;;10.00;99.90;;;;;;4987241;28;20850;-69
2021/10/17 04:30:36;;;;;;;10.23;4.37;;;10.00;99.90;;;;;;4978052;28;20238;-70
2021/10/17 04:33:04;;;;;;;10.20;4.90;;;10.00;99.90;;;;;;4979786;28;20292;-69
2021/10/17 04:35:36;;;;;;;10.77;4.93;;;10.10;99.90;;;;;;4976318;28;20237;-69
2021/10/17 04:38:07;;;;;;;11.03;4.63;;;10.00;99.90;;;;;;4989580;28;20651;-69
2021/10/17 04:40:38;;;;;;;12.17;5.30;;;10.00;99.90;;;;;;4971675;28;20229;-69
2021/10/17 04:43:06;;;;;;;13.00;4.83;;;10.00;99.90;;;;;;4976384;28;20229;-70
2021/10/17 04:45:37;;;;;;;7.73;5.00;;;10.00;99.90;;;;;;4993373;28;20231;-69
2021/10/17 04:48:06;;;;;;;9.57;5.60;;;10.00;99.90;;;;;;4993697;28;20237;-69
2021/10/17 04:50:34;;;;;;;15.53;5.50;;;10.00;99.90;;;;;;4991709;28;20322;-70
2021/10/17 04:53:02;;;;;;;7.97;4.53;;;10.00;99.90;;;;;;4971968;28;20230;-69
2021/10/17 04:55:32;;;;;;;8.47;4.67;;;10.00;99.90;;;;;;4999976;28;20241;-69
2021/10/17 04:58:04;;;;;;;9.27;4.90;;;10.00;99.90;;;;;;4988096;28;20299;-70
2021/10/17 05:00:33;;;;;;;9.27;4.43;;;10.00;99.90;;;;;;4984988;28;20241;-69
2021/10/17 05:03:04;;;;;;;10.83;5.00;;;10.00;99.90;;;;;;4981806;28;20338;-70
2021/10/17 05:05:33;;;;;;;12.90;5.13;;;10.00;99.90;;;;;;4977943;28;20381;-70
2021/10/17 05:08:03;;;;;;;10.03;5.27;;;10.00;99.90;;;;;;4987899;28;20286;-69
2021/10/17 05:10:35;;;;;;;6.50;5.20;;;10.00;99.90;;;;;;4990304;28;20268;-68
2021/10/17 05:13:06;;;;;;;13.77;5.60;;;10.10;99.90;;;;;;4970592;28;20642;-69
2021/10/17 05:15:34;;;;;;;10.30;5.40;;;10.10;99.90;;;;;;4975761;28;20241;-70
2021/10/17 05:18:03;;;;;;;9.53;5.10;;;10.00;99.90;;;;;;4971103;28;20718;-68
2021/10/17 05:20:32;;;;;;;10.00;5.50;;;10.00;99.90;;;;;;4998880;28;20485;-69
2021/10/17 05:23:00;;;;;;;12.37;5.80;;;10.10;99.90;;;;;;4986503;28;20238;-70
2021/10/17 05:25:29;;;;;;;8.87;5.50;;;10.10;99.90;;;;;;4984994;28;20234;-69
2021/10/17 05:27:58;;;;;;;10.57;5.93;;;10.00;99.90;;;;;;4977777;28;20256;-68
2021/10/17 05:30:32;;;;;;;8.60;5.60;;;10.00;99.90;;;;;;4977516;28;20843;-69
2021/10/17 05:33:02;;;;;;;12.70;5.73;;;10.00;99.90;;;;;;4975078;28;20241;-70
2021/10/17 05:35:33;;;;;;;11.63;5.50;;;9.90;99.90;;;;;;4977100;28;20709;-70
2021/10/17 05:38:02;;;;;;;10.97;5.83;;;9.90;99.90;;;;;;4979507;28;20257;-69
2021/10/17 05:40:32;;;;;;;11.23;6.20;;;9.90;99.90;;;;;;4966715;28;20799;-70
2021/10/17 05:43:00;;;;;;;10.60;5.47;;;9.90;99.90;;;;;;4968344;28;20237;-69
2021/10/17 05:45:30;;;;;;;13.33;6.53;;;9.90;99.90;;;;;;4973656;28;20674;-69
2021/10/17 05:47:58;;;;;;;11.47;5.93;;;9.90;99.90;;;;;;4987148;28;20702;-69
2021/10/17 05:50:27;;;;;;;8.90;5.80;;;9.90;99.90;;;;;;4987628;28;20241;-70
2021/10/17 05:52:55;;;;;;;12.10;6.33;;;9.90;99.90;;;;;;4977471;28;20693;-70
2021/10/17 05:55:24;;;;;;;13.30;6.47;;;9.90;99.90;;;;;;4973579;28;20272;-70
2021/10/17 05:57:52;;;;;;;11.90;6.80;;;9.90;99.90;;;;;;4978383;28;20238;-70
2021/10/17 06:00:21;;;;;;;12.67;6.50;;;9.90;99.90;;;;;;4988682;28;20321;-70
2021/10/17 06:02:54;;;;;;;11.33;6.50;;;9.90;99.90;;;;;;4975015;28;20246;-70
2021/10/17 06:05:25;;;;;;;13.00;6.70;;;9.90;99.90;;;;;;4978008;28;20226;-69
2021/10/17 06:07:53;;;;;;;14.83;7.20;;;9.90;99.90;;;;;;4971106;28;20253;-69
2021/10/17 06:10:21;;;;;;;15.47;6.43;;;9.90;99.90;;;;;;4989083;28;20248;-70
2021/10/17 06:12:50;;;;;;;13.17;6.50;;;9.90;99.90;;;;;;4980365;28;20751;-69
2021/10/17 06:15:18;;;;;;;16.33;7.17;;;9.90;99.90;;;;;;4975146;28;20686;-69
2021/10/17 06:17:47;;;;;;;9.83;6.20;;;9.90;99.90;;;;;;4980487;28;20258;-70
2021/10/17 06:20:16;;;;;;;12.60;6.73;;;9.90;99.90;;;;;;4976557;28;20238;-69
2021/10/17 06:22:48;;;;;;;11.53;6.50;;;9.90;99.90;;;;;;4974701;28;20234;-69
2021/10/17 06:25:16;;;;;;;10.87;7.13;;;9.90;99.90;;;;;;4982772;28;20237;-70
2021/10/17 06:27:44;;;;;;;12.70;6.83;;;9.90;99.90;;;;;;4975553;28;20245;-69
2021/10/17 06:30:12;;;;;;;11.43;6.67;;;9.90;99.90;;;;;;4975814;28;20236;-70
2021/10/17 06:32:41;;;;;;;11.97;6.73;;;9.90;99.90;;;;;;4978285;28;20617;-69
2021/10/17 06:35:14;;;;;;;13.60;6.60;;;9.90;99.90;;;;;;4990142;28;20244;-69
2021/10/17 06:37:44;;;;;;;13.97;6.97;;;9.90;99.90;;;;;;4981012;28;20647;-69
2021/10/17 06:40:13;;;;;;;13.17;7.10;;;10.00;99.90;;;;;;4979209;28;20317;-70
2021/10/17 06:42:41;;;;;;;12.40;7.03;;;10.00;99.90;;;;;;4996521;28;20713;-71
2021/10/17 06:45:28;;;;;;;8.93;6.53;;;10.00;99.90;;;;;;4978951;28;20705;-70
2021/10/17 06:47:57;;;;;;;11.03;6.53;;;10.00;99.90;;;;;;4990913;28;20234;-70
2021/10/17 06:50:26;;;;;;;11.03;6.93;;;10.00;99.90;;;;;;4993905;28;20262;-68
2021/10/17 06:52:55;;;;;;;11.33;6.40;;;10.00;99.90;;;;;;4977571;28;20284;-69
2021/10/17 06:55:24;;;;;;;16.07;7.00;;;10.00;99.90;;;;;;4990112;28;20236;-69
2021/10/17 06:57:54;;;;;;;13.67;7.70;;;9.90;99.90;;;;;;4979318;28;20231;-69
2021/10/17 07:00:23;;;;;;;11.83;6.87;;;9.90;99.90;;;;;;4993581;28;20319;-69
2021/10/17 07:02:52;;;;;;;12.37;7.13;;;9.90;99.90;;;;;;4987879;28;20258;-70
2021/10/17 07:05:21;;;;;;;12.23;7.33;;;10.00;99.90;;;;;;4974756;28;20241;-70
2021/10/17 07:07:50;;;;;;;15.40;8.17;;;10.00;99.90;;;;;;4977415;28;20333;-69
2021/10/17 07:10:20;;;;;;;11.07;6.50;;;9.90;99.90;;;;;;4987045;28;20289;-69
2021/10/17 07:13:06;;;;;;;13.87;7.47;;;9.90;99.90;;;;;;4994382;28;20612;-70
2021/10/17 07:15:52;;;;;;;11.10;7.17;;;9.90;99.90;;;;;;4984590;28;20232;-69
2021/10/17 07:18:21;;;;;;;14.63;7.90;;;9.90;99.90;;;;;;4988954;28;20301;-70
2021/10/17 07:20:50;;;;;;;11.87;7.73;;;9.90;99.90;;;;;;4978036;28;20261;-70
2021/10/17 07:23:18;;;;;;;14.70;7.57;;;9.90;99.90;;;;;;4979415;28;20241;-69
2021/10/17 07:25:48;;;;;;;12.60;7.90;;;9.90;99.90;;;;;;4973283;28;20325;-70
2021/10/17 07:28:17;;;;;;;13.37;8.00;;;9.90;99.90;;;;;;4990650;28;20230;-69
2021/10/17 07:31:08;;;;;;;16.83;8.10;;;9.90;99.90;;;;;;4986892;28;20331;-70
2021/10/17 07:33:53;;;;;;;14.23;8.27;;;9.90;99.90;;;;;;4991109;28;20274;-69
2021/10/17 07:36:23;;;;;;;14.43;8.33;;;9.90;99.90;;;;;;4985259;28;20238;-70
2021/10/17 07:38:57;;;;;;;18.13;9.00;;;9.90;99.90;;;;;;4992063;28;20242;-69
2021/10/17 07:41:29;;;;;;;15.20;9.33;;;9.90;99.90;;;;;;4977804;28;20322;-70
2021/10/17 07:44:03;;;;;;;16.67;8.83;;;9.90;99.90;;;;;;4971527;28;20325;-69
2021/10/17 07:46:33;;;;;;;14.37;9.10;;;9.90;99.90;;;;;;4974539;28;20269;-69
2021/10/17 07:49:05;;;;;;;17.93;9.20;;;9.90;99.90;;;;;;4975789;28;20308;-69
2021/10/17 07:51:33;;;;;;;18.10;8.57;;;9.90;99.90;;;;;;4971139;28;20325;-68
2021/10/17 07:54:08;;;;;;;15.50;9.03;;;9.90;99.90;;;;;;4959269;28;20237;-69
2021/10/17 07:56:41;;;;;;;15.50;9.70;;;9.90;99.90;;;;;;4963921;28;20238;-68
2021/10/17 07:59:10;;;;;;;15.83;9.47;;;9.90;99.90;;;;;;4964301;28;20669;-69
2021/10/17 08:01:40;;;;;;;17.20;9.83;;;9.90;99.90;;;;;;4959045;28;20740;-68
2021/10/17 08:04:32;;;;;;;11.10;8.90;;;10.00;99.90;;;;;;4973849;28;20243;-70
2021/10/17 08:07:13;;;;;;;14.63;9.27;;;10.00;99.90;;;;;;4968655;28;20226;-70
2021/10/17 08:09:43;;;;;;;16.57;9.60;;;10.00;99.90;;;;;;4985277;28;20254;-70
2021/10/17 08:12:13;;;;;;;16.90;9.33;;;10.00;99.90;;;;;;4994810;28;20237;-70
2021/10/17 08:14:41;;;;;;;12.50;9.10;;;10.00;99.90;;;;;;4988915;28;20233;-69
2021/10/17 08:17:09;;;;;;;15.27;9.03;;;10.10;99.90;;;;;;4984554;28;20277;-70
2021/10/17 08:20:08;;;;;;;19.80;9.17;;;10.10;99.90;;;;;;4941966;28;20236;-69
2021/10/17 08:22:37;;;;;;;16.90;9.43;;;10.10;99.90;;;;;;4981047;28;20234;-69
2021/10/17 08:25:09;;;;;;;14.60;8.67;;;10.10;99.90;;;;;;4953919;28;20727;-68
2021/10/17 08:27:41;;;;;;;17.67;9.33;;;10.10;99.90;;;;;;979344;28;10001982;-70
2021/10/17 08:30:13;;;;;;;15.93;9.60;;;10.10;99.90;;;;;;4975789;28;20242;-70
2021/10/17 08:32:53;;;;;;;13.27;9.50;;;10.10;99.90;;;;;;4991563;28;20693;-70
2021/10/17 08:35:23;;;;;;;16.30;9.50;;;10.10;99.90;;;;;;4991710;28;20698;-69
2021/10/17 08:37:51;;;;;;;18.27;9.37;;;10.10;99.90;;;;;;4970666;28;20785;-69
2021/10/17 08:40:31;;;;;;;18.17;9.37;;;10.10;99.90;;;;;;4968462;28;20241;-69
2021/10/17 08:43:24;;;;;;;14.57;8.90;;;10.10;99.90;;;;;;4972045;28;21442;-69
2021/10/17 08:46:20;;;;;;;16.77;9.50;;;10.10;99.90;;;;;;4975278;28;20316;-68
2021/10/17 08:48:58;;;;;;;17.20;9.70;;;10.10;99.90;;;;;;4970266;28;20259;-69
2021/10/17 08:51:29;;;;;;;16.30;9.57;;;10.20;99.90;;;;;;4983108;28;20239;-69
2021/10/17 08:54:05;;;;;;;14.60;9.27;;;10.20;99.90;;;;;;4969821;28;20254;-70
2021/10/17 08:56:38;;;;;;;16.63;10.37;;;10.20;99.90;;;;;;4965542;28;20373;-68
2021/10/17 08:59:10;;;;;;;14.03;9.43;;;10.20;99.90;;;;;;4964859;28;20688;-70
2021/10/17 09:01:45;;;;;;;17.40;10.27;;;10.20;99.90;;;;;;4986646;28;20657;-70
2021/10/17 09:04:17;;;;;;;18.90;9.37;;;10.30;99.90;;;;;;4980429;28;20632;-70
2021/10/17 09:07:21;;;;;;;14.30;9.20;;;10.30;99.90;;;;;;4971663;28;20235;-69
2021/10/17 09:10:11;;;;;;;17.63;9.30;;;10.30;99.90;;;;;;4976974;28;20237;-69
2021/10/17 09:12:42;;;;;;;12.87;9.33;;;10.40;99.90;;;;;;4982228;28;20239;-69
2021/10/17 09:15:35;;;;;;;16.70;10.07;;;10.40;99.90;;;;;;4981244;28;20237;-69
2021/10/17 09:18:15;;;;;;;15.60;9.43;;;10.50;99.90;;;;;;4966620;28;20239;-70
2021/10/17 09:20:56;;;;;;;18.90;9.80;;;10.60;99.90;;;;;;4981221;28;20264;-69
2021/10/17 09:23:37;;;;;;;20.30;11.13;;;10.60;99.90;;;;;;4984939;28;20806;-69
2021/10/17 09:26:17;;;;;;;14.27;9.30;;;10.60;99.90;;;;;;4986117;28;20231;-68
2021/10/17 09:28:46;;;;;;;13.10;9.07;;;10.60;99.90;;;;;;4986481;28;20246;-69
2021/10/17 09:31:18;;;;;;;18.43;9.53;;;10.70;99.90;;;;;;4970344;28;20245;-70
2021/10/17 09:33:50;;;;;;;16.73;9.43;;;10.70;99.90;;;;;;4980566;28;20326;-69
2021/10/17 09:36:25;;;;;;;19.97;9.90;;;10.70;99.90;;;;;;4972411;28;20237;-69
2021/10/17 09:39:11;;;;;;;15.50;9.03;;;10.70;99.90;;;;;;4974977;28;20336;-69
2021/10/17 09:41:59;;;;;;;16.20;8.93;;;10.70;99.90;;;;;;4973702;28;20234;-70
2021/10/17 09:44:40;;;;;;;13.67;8.40;;;10.80;99.90;;;;;;4977768;28;20953;-70
2021/10/17 09:47:10;;;;;;;15.77;8.87;;;10.80;99.90;;;;;;4977207;28;20581;-71
2021/10/17 09:49:39;;;;;;;14.37;8.90;;;10.80;99.90;;;;;;4977463;28;20234;-71
2021/10/17 09:52:16;;;;;;;13.33;9.57;;;10.90;99.90;;;;;;4973734;28;20314;-70
2021/10/17 09:54:47;;;;;;;20.50;9.10;;;10.90;99.90;;;;;;4979408;28;20281;-70
2021/10/17 09:57:16;;;;;;;18.80;9.07;;;10.90;99.90;;;;;;4978480;28;20281;-71
2021/10/17 09:59:45;;;;;;;11.73;8.13;;;11.00;99.90;;;;;;4977906;28;20242;-68
2021/10/17 10:02:15;;;;;;;17.60;9.20;;;11.00;99.90;;;;;;4974494;28;20245;-68
2021/10/17 10:04:45;;;;;;;15.30;8.30;;;11.00;99.90;;;;;;4979279;28;20234;-68
2021/10/17 10:07:21;;;;;;;12.93;8.23;;;11.10;99.90;;;;;;4978655;28;20246;-68
2021/10/17 10:09:50;;;;;;;16.00;9.07;;;11.10;99.90;;;;;;4978609;28;20297;-69
2021/10/17 10:12:20;;;;;;;13.97;8.63;;;11.10;99.90;;;;;;4974564;28;20244;-68
2021/10/17 10:14:49;;;;;;;14.10;8.90;;;11.10;99.90;;;;;;4979224;28;20240;-69
2021/10/17 10:17:20;;;;;;;13.03;8.60;;;11.10;99.90;;;;;;4978452;28;20760;-72
2021/10/17 10:19:48;;;;;;;16.87;9.33;;;11.20;99.90;;;;;;4979459;28;20227;-71
2021/10/17 10:22:18;;;;;;;13.60;8.87;;;11.20;99.90;;;;;;4974661;28;20584;-71
2021/10/17 10:24:51;;;;;;;14.53;8.60;;;11.30;99.90;;;;;;4979525;28;20704;-70
2021/10/17 10:27:20;;;;;;;15.30;8.13;;;11.30;99.90;;;;;;4978644;28;20460;-70
2021/10/17 10:29:48;;;;;;;17.20;8.70;;;11.30;99.90;;;;;;4979337;28;20321;-70
2021/10/17 10:32:24;;;;;;;13.50;8.43;;;11.30;99.90;;;;;;4973176;28;20238;-70
2021/10/17 10:34:55;;;;;;;17.30;8.50;;;11.40;99.90;;;;;;4979527;28;20362;-70
2021/10/17 10:37:25;;;;;;;16.57;8.77;;;11.40;99.90;;;;;;4978939;28;20366;-71
2021/10/17 10:40:10;;;;;;;20.07;8.33;;;11.50;99.90;;;;;;4977920;28;20237;-70
2021/10/17 10:42:40;;;;;;;15.97;9.07;;;11.60;99.90;;;;;;4974302;28;20752;-71
2021/10/17 10:45:22;;;;;;;15.07;8.63;;;11.60;99.90;;;;;;4977939;28;20997;-70
2021/10/17 10:48:22;;;;;;;12.87;8.03;;;11.70;99.90;;;;;;4978742;28;20333;-70
2021/10/17 10:50:54;;;;;;;11.77;8.40;;;11.70;99.90;;;;;;4972884;28;20274;-71
2021/10/17 10:53:51;;;;;;;13.60;8.13;;;11.70;99.90;;;;;;4978132;28;20978;-70
2021/10/17 10:56:45;;;;;;;14.40;8.30;;;11.80;99.90;;;;;;4978430;28;20244;-71
2021/10/17 10:59:16;;;;;;;15.70;8.17;;;11.80;99.90;;;;;;4977882;28;20267;-71
2021/10/17 11:01:56;;;;;;;14.00;8.90;;;11.80;99.90;;;;;;4973045;28;20586;-70
2021/10/17 11:05:04;;;;;;;15.13;8.33;;;12.00;99.90;;;;;;4977901;28;20239;-70
2021/10/17 11:07:39;;;;;;;13.90;7.57;;;12.00;99.90;;;;;;4978601;28;20329;-70
2021/10/17 11:10:36;;;;;;;13.90;7.90;;;12.00;99.90;;;;;;4977075;28;20238;-70
2021/10/17 11:13:10;;;;;;;16.20;8.13;;;12.00;99.90;;;;;;4976251;28;20238;-70
2021/10/17 11:15:43;;;;;;;17.90;8.50;;;12.00;99.90;;;;;;4976015;28;20244;-70
2021/10/17 11:18:13;;;;;;;13.67;8.00;;;12.00;99.90;;;;;;4977556;28;20233;-70
2021/10/17 11:20:43;;;;;;;14.47;7.70;;;12.10;99.90;;;;;;4972723;28;20658;-70
2021/10/17 11:23:19;;;;;;;15.17;8.20;;;12.10;99.90;;;;;;4976224;28;20758;-70
2021/10/17 11:25:54;;;;;;;12.83;7.97;;;12.10;99.90;;;;;;4976367;28;20546;-69
2021/10/17 11:28:22;;;;;;;16.63;7.33;;;12.10;99.90;;;;;;4977756;28;20374;-68
2021/10/17 11:31:00;;;;;;;17.13;9.00;;;12.10;99.90;;;;;;4972416;28;20243;-68
2021/10/17 11:33:30;;;;;;;15.53;7.37;;;12.10;99.90;;;;;;4976270;28;20270;-68
2021/10/17 11:36:01;;;;;;;15.07;7.70;;;12.10;99.90;;;;;;4942526;28;20716;-68
2021/10/17 11:38:32;;;;;;;14.83;8.73;;;12.10;99.90;;;;;;4976887;28;20346;-69
2021/10/17 11:41:10;;;;;;;16.73;7.43;;;12.10;99.90;;;;;;4972434;28;20332;-68
2021/10/17 11:43:41;;;;;;;17.23;8.63;;;12.10;99.90;;;;;;4956654;28;20648;-68
2021/10/17 11:46:13;;;;;;;11.50;7.60;;;12.10;99.90;;;;;;4959144;28;20734;-69
2021/10/17 11:48:44;;;;;;;11.03;7.63;;;12.10;99.90;;;;;;4959155;28;20485;-68
2021/10/17 11:51:17;;;;;;;16.33;7.87;;;12.10;99.90;;;;;;4971336;28;20330;-69
2021/10/17 11:53:56;;;;;;;13.23;7.73;;;12.10;99.90;;;;;;4975787;28;20232;-69
2021/10/17 11:56:26;;;;;;;12.13;8.07;;;12.00;99.90;;;;;;4975835;28;20238;-68
2021/10/17 11:58:56;;;;;;;17.77;9.00;;;12.10;99.90;;;;;;4976443;28;20244;-68
2021/10/17 12:01:26;;;;;;;13.80;8.13;;;12.10;99.90;;;;;;4955049;28;20540;-68
2021/10/17 12:03:58;;;;;;;15.47;8.47;;;12.10;99.90;;;;;;4959460;28;20247;-69
2021/10/17 12:06:29;;;;;;;14.17;8.13;;;12.20;99.90;;;;;;4957190;28;20865;-68
2021/10/17 12:09:03;;;;;;;13.83;7.87;;;12.20;99.90;;;;;;4974472;28;20740;-69
2021/10/17 12:11:34;;;;;;;14.17;8.00;;;12.30;99.90;;;;;;4971498;28;20239;-69
2021/10/17 12:14:09;;;;;;;15.97;8.83;;;12.30;99.90;;;;;;4958449;28;20294;-68
2021/10/17 12:16:48;;;;;;;14.70;8.43;;;12.40;99.90;;;;;;4974154;28;20623;-68
2021/10/17 12:19:26;;;;;;;18.50;8.53;;;12.40;99.90;;;;;;4957632;28;20264;-68
2021/10/17 12:21:55;;;;;;;16.13;9.20;;;12.40;99.90;;;;;;4954041;28;20334;-68
2021/10/17 12:24:35;;;;;;;13.33;8.20;;;12.40;99.90;;;;;;4974540;28;20236;-68
2021/10/17 12:27:07;;;;;;;13.70;8.87;;;12.40;99.90;;;;;;4944161;28;20234;-68
2021/10/17 12:29:39;;;;;;;13.43;8.80;;;12.40;99.90;;;;;;4959233;28;20327;-68
2021/10/17 12:32:08;;;;;;;14.97;8.53;;;12.40;99.90;;;;;;4970853;28;20231;-68
2021/10/17 12:34:44;;;;;;;15.33;8.77;;;12.40;99.90;;;;;;4976572;28;20648;-68
2021/10/17 12:37:15;;;;;;;13.50;7.70;;;12.40;99.90;;;;;;4975006;28;20863;-69
2021/10/17 12:39:49;;;;;;;13.17;7.73;;;12.40;99.90;;;;;;4960839;28;20247;-70
2021/10/17 12:42:19;;;;;;;14.60;8.93;;;12.50;99.90;;;;;;4921792;28;20254;-70
2021/10/17 12:45:13;;;;;;;11.20;8.10;;;12.40;99.90;;;;;;4961272;28;20806;-69
2021/10/17 12:47:50;;;;;;;12.03;8.43;;;12.40;99.90;;;;;;4958270;28;20244;-68
2021/10/17 12:50:22;;;;;;;16.37;8.30;;;12.40;99.90;;;;;;4956559;28;20293;-68
2021/10/17 12:52:56;;;;;;;18.13;8.63;;;12.40;99.90;;;;;;4956785;28;20752;-68
2021/10/17 12:55:37;;;;;;;13.97;8.43;;;12.40;99.90;;;;;;4976600;28;20321;-68
2021/10/17 12:58:13;;;;;;;15.40;8.47;;;12.40;99.90;;;;;;4976796;28;20659;-68
2021/10/17 13:00:44;;;;;;;12.97;9.03;;;12.40;99.90;;;;;;4954433;28;20242;-68
2021/10/17 13:03:18;;;;;;;16.20;9.00;;;12.40;99.90;;;;;;4973842;28;20243;-68
2021/10/17 13:05:55;;;;;;;15.67;8.23;;;12.40;99.90;;;;;;4975658;28;20326;-69
2021/10/17 13:08:28;;;;;;;14.60;8.30;;;12.40;99.90;;;;;;4954292;28;20263;-68